Time;durP1;ratioP1;P1;durP2;ratioP2;P2;SDS_P1;SDS_P2;PMS_P1;PMS_P2;Temp;Humidity;BMP_temperature;BMP_pressure;BME280_temperature;BME280_humidity;BME280_pressure;Samples;Min_cycle;Max_cycle;Signal;HPM_P1;HPM_P2
2022/03/16 00:02:07;;;;;;;336.73;32.13;;;;;;;;;;5026537;28;20136;-76
2022/03/16 00:04:35;;;;;;;420.77;31.50;;;;;;;;;;5023655;28;20053;-76
2022/03/16 00:07:03;;;;;;;270.65;27.45;;;;;;;;;;5033384;28;20141;-76
2022/03/16 00:09:30;;;;;;;305.05;27.00;;;;;;;;;;5043460;28;20073;-76
2022/03/16 00:11:57;;;;;;;318.60;27.38;;;;;;;;;;5010107;28;20671;-76
2022/03/16 00:14:24;;;;;;;436.13;30.23;;;;;;;;;;5029604;28;20137;-75
2022/03/16 00:16:52;;;;;;;337.33;28.42;;;;;;;;;;5035103;28;20698;-76
2022/03/16 00:19:19;;;;;;;400.85;27.25;;;;;;;;;;5028160;28;20049;-75
2022/03/16 00:21:46;;;;;;;556.35;38.05;;;;;;;;;;5031511;28;20065;-76
2022/03/16 00:24:14;;;;;;;523.92;33.10;;;;;;;;;;5047762;28;20045;-76
2022/03/16 00:26:41;;;;;;;624.80;39.17;;;;;;;;;;5027784;28;20129;-76
2022/03/16 00:29:08;;;;;;;419.98;30.50;;;;;;;;;;5034979;28;20069;-76
2022/03/16 00:31:35;;;;;;;475.67;32.20;;;;;;;;;;5044843;28;20144;-76
2022/03/16 00:34:03;;;;;;;543.47;34.40;;;;;;;;;;5038529;28;20055;-75
2022/03/16 00:36:30;;;;;;;408.98;27.15;;;;;;;;;;5033245;28;20775;-76
2022/03/16 00:38:57;;;;;;;241.65;24.42;;;;;;;;;;5040650;28;20046;-76
2022/03/16 00:41:24;;;;;;;202.98;24.55;;;;;;;;;;5036181;28;20080;-75
2022/03/16 00:43:52;;;;;;;428.90;32.33;;;;;;;;;;5021734;28;20147;-75
2022/03/16 00:46:19;;;;;;;367.17;28.02;;;;;;;;;;5036178;28;20846;-75
2022/03/16 00:48:47;;;;;;;306.00;24.48;;;;;;;;;;5035013;28;20084;-75
2022/03/16 00:51:14;;;;;;;168.10;22.50;;;;;;;;;;5045621;28;20072;-76
2022/03/16 00:53:42;;;;;;;316.50;27.13;;;;;;;;;;5030271;28;20136;-78
2022/03/16 00:56:09;;;;;;;127.32;21.73;;;;;;;;;;5027934;28;20060;-77
2022/03/16 00:58:36;;;;;;;263.25;23.17;;;;;;;;;;5022515;28;20103;-78
2022/03/16 01:01:07;;;;;;;243.70;23.05;;;;;;;;;;5024436;28;20054;-78
2022/03/16 01:03:35;;;;;;;243.48;24.05;;;;;;;;;;5025684;28;20115;-78
2022/03/16 01:06:02;;;;;;;284.65;24.15;;;;;;;;;;5053860;28;20095;-77
2022/03/16 01:08:30;;;;;;;311.65;26.48;;;;;;;;;;5033208;28;20115;-77
2022/03/16 01:10:57;;;;;;;347.92;26.55;;;;;;;;;;5033841;28;20053;-77
2022/03/16 01:13:24;;;;;;;273.73;25.65;;;;;;;;;;5033988;28;20096;-78
2022/03/16 01:15:51;;;;;;;303.90;24.88;;;;;;;;;;5034753;28;20072;-78
2022/03/16 01:18:18;;;;;;;282.23;23.38;;;;;;;;;;5034929;28;20128;-79
2022/03/16 01:20:46;;;;;;;409.63;25.88;;;;;;;;;;5033006;28;20083;-77
2022/03/16 01:23:13;;;;;;;303.08;22.50;;;;;;;;;;5037395;28;20468;-77
2022/03/16 01:25:40;;;;;;;333.80;26.13;;;;;;;;;;5039720;28;20750;-78
2022/03/16 01:28:07;;;;;;;275.90;21.42;;;;;;;;;;5036625;28;20620;-77
2022/03/16 01:30:34;;;;;;;385.33;25.42;;;;;;;;;;5057095;28;20465;-78
2022/03/16 01:33:02;;;;;;;328.95;24.17;;;;;;;;;;5045703;28;20136;-78
2022/03/16 01:35:29;;;;;;;245.18;18.95;;;;;;;;;;5035266;28;20046;-78
2022/03/16 01:37:56;;;;;;;236.70;20.73;;;;;;;;;;5036180;28;20099;-78
2022/03/16 01:40:23;;;;;;;302.55;23.73;;;;;;;;;;5056548;28;20069;-78
2022/03/16 01:42:51;;;;;;;237.73;21.42;;;;;;;;;;5056058;28;20446;-78
2022/03/16 01:45:18;;;;;;;286.33;22.50;;;;;;;;;;5043201;28;20093;-78
2022/03/16 01:47:45;;;;;;;306.10;22.85;;;;;;;;;;5034604;28;20801;-79
2022/03/16 01:50:12;;;;;;;296.95;21.77;;;;;;;;;;5043972;28;20481;-78
2022/03/16 01:52:39;;;;;;;363.45;22.15;;;;;;;;;;5035950;28;20045;-78
2022/03/16 01:55:07;;;;;;;360.80;21.35;;;;;;;;;;5052891;28;20053;-78
2022/03/16 01:57:35;;;;;;;328.98;22.80;;;;;;;;;;5030140;28;20556;-77
2022/03/16 02:00:04;;;;;;;286.95;22.45;;;;;;;;;;5042285;28;20128;-78
2022/03/16 02:02:31;;;;;;;275.65;21.00;;;;;;;;;;5024807;28;20057;-78
2022/03/16 02:04:59;;;;;;;372.95;23.75;;;;;;;;;;5036040;28;20236;-78
2022/03/16 02:07:26;;;;;;;239.07;20.30;;;;;;;;;;5039899;28;20103;-78
2022/03/16 02:09:53;;;;;;;180.90;19.35;;;;;;;;;;5036137;28;20095;-78
2022/03/16 02:12:21;;;;;;;182.00;17.60;;;;;;;;;;5047806;28;20138;-78
2022/03/16 02:14:48;;;;;;;122.65;15.88;;;;;;;;;;5032004;28;20085;-78
2022/03/16 02:17:15;;;;;;;230.52;19.85;;;;;;;;;;5034476;28;20301;-78
2022/03/16 02:19:43;;;;;;;141.32;17.48;;;;;;;;;;5055800;28;20076;-78
2022/03/16 02:22:13;;;;;;;229.18;18.58;;;;;;;;;;5062707;28;20577;-78
2022/03/16 02:24:40;;;;;;;100.45;15.38;;;;;;;;;;5027879;28;20088;-78
2022/03/16 02:27:08;;;;;;;247.25;20.70;;;;;;;;;;5032829;28;20450;-78
2022/03/16 02:29:35;;;;;;;209.13;18.52;;;;;;;;;;5041202;28;20046;-78
2022/03/16 02:32:02;;;;;;;170.48;17.23;;;;;;;;;;5043606;28;20846;-78
2022/03/16 02:34:30;;;;;;;218.90;17.70;;;;;;;;;;5033334;28;20437;-78
2022/03/16 02:36:58;;;;;;;155.00;17.08;;;;;;;;;;5032946;28;20064;-78
2022/03/16 02:39:25;;;;;;;204.32;20.50;;;;;;;;;;5041320;28;20049;-78
2022/03/16 02:41:52;;;;;;;115.57;16.02;;;;;;;;;;5036215;28;20096;-79
2022/03/16 02:44:20;;;;;;;184.93;18.02;;;;;;;;;;5041285;28;20053;-78
2022/03/16 02:46:47;;;;;;;170.50;16.73;;;;;;;;;;5041873;28;20611;-79
2022/03/16 02:49:14;;;;;;;214.20;17.73;;;;;;;;;;5053704;28;20561;-79
2022/03/16 02:51:41;;;;;;;181.23;16.77;;;;;;;;;;5039315;28;20080;-79
2022/03/16 02:54:08;;;;;;;313.80;20.58;;;;;;;;;;5033564;28;20609;-79
2022/03/16 02:56:36;;;;;;;368.55;24.38;;;;;;;;;;5036681;28;20085;-78
2022/03/16 02:59:03;;;;;;;252.45;17.30;;;;;;;;;;5045282;28;20123;-78
2022/03/16 03:01:31;;;;;;;174.05;16.05;;;;;;;;;;5031350;28;20153;-78
2022/03/16 03:03:58;;;;;;;332.13;20.45;;;;;;;;;;5031804;28;20061;-78
2022/03/16 03:06:27;;;;;;;259.60;18.98;;;;;;;;;;5038497;28;20115;-78
2022/03/16 03:08:54;;;;;;;153.40;16.75;;;;;;;;;;5032311;28;20049;-78
2022/03/16 03:11:21;;;;;;;291.27;19.95;;;;;;;;;;5029931;28;20083;-78
2022/03/16 03:13:49;;;;;;;250.30;18.02;;;;;;;;;;5033451;28;20488;-78
2022/03/16 03:16:16;;;;;;;165.85;15.20;;;;;;;;;;5031817;28;20550;-78
2022/03/16 03:18:43;;;;;;;123.05;16.23;;;;;;;;;;5040951;28;20049;-78
2022/03/16 03:21:11;;;;;;;131.00;15.40;;;;;;;;;;5042339;28;20141;-79
2022/03/16 03:23:39;;;;;;;185.85;17.00;;;;;;;;;;5040718;28;20151;-78
2022/03/16 03:26:06;;;;;;;125.95;15.02;;;;;;;;;;5034950;28;20520;-78
2022/03/16 03:28:33;;;;;;;122.55;15.55;;;;;;;;;;5030667;28;20161;-78
2022/03/16 03:31:00;;;;;;;204.82;17.52;;;;;;;;;;5043261;28;20084;-78
2022/03/16 03:33:28;;;;;;;257.30;18.55;;;;;;;;;;5032430;28;20057;-78
2022/03/16 03:35:55;;;;;;;212.23;16.95;;;;;;;;;;5042971;28;20115;-77
2022/03/16 03:38:23;;;;;;;91.80;12.98;;;;;;;;;;5030679;28;20108;-77
2022/03/16 03:40:50;;;;;;;155.18;16.23;;;;;;;;;;5044306;28;20083;-78
2022/03/16 03:43:17;;;;;;;248.57;20.33;;;;;;;;;;5027732;28;20606;-77
2022/03/16 03:45:44;;;;;;;204.90;18.35;;;;;;;;;;5054260;28;20076;-78
2022/03/16 03:48:11;;;;;;;175.32;16.95;;;;;;;;;;5031312;28;20141;-77
2022/03/16 03:50:39;;;;;;;163.25;17.45;;;;;;;;;;5034533;28;20073;-77
2022/03/16 03:53:06;;;;;;;155.43;16.10;;;;;;;;;;5035208;28;20061;-78
2022/03/16 03:55:33;;;;;;;209.05;16.48;;;;;;;;;;5055461;28;20128;-77
2022/03/16 03:58:00;;;;;;;366.45;21.15;;;;;;;;;;5027789;28;20140;-77
2022/03/16 04:00:27;;;;;;;391.95;23.80;;;;;;;;;;5011715;28;20073;-77
2022/03/16 04:02:55;;;;;;;229.32;18.50;;;;;;;;;;5031285;28;20662;-77
2022/03/16 04:05:22;;;;;;;151.77;15.50;;;;;;;;;;5035148;28;20049;-78
2022/03/16 04:07:49;;;;;;;218.88;19.23;;;;;;;;;;5030007;28;20463;-78
2022/03/16 04:10:17;;;;;;;177.93;17.77;;;;;;;;;;5059083;28;20087;-78
2022/03/16 04:12:44;;;;;;;198.50;17.88;;;;;;;;;;5034011;28;20077;-78
2022/03/16 04:15:12;;;;;;;157.98;15.27;;;;;;;;;;5030036;28;20113;-79
2022/03/16 04:17:39;;;;;;;174.13;17.10;;;;;;;;;;5029237;28;20081;-79
2022/03/16 04:20:07;;;;;;;245.13;18.65;;;;;;;;;;5034697;28;20540;-78
2022/03/16 04:22:34;;;;;;;230.70;19.33;;;;;;;;;;5030255;28;20049;-78
2022/03/16 04:25:02;;;;;;;259.83;20.17;;;;;;;;;;5028860;28;20077;-78
2022/03/16 04:27:29;;;;;;;205.57;19.13;;;;;;;;;;5030657;28;20079;-78
2022/03/16 04:29:56;;;;;;;130.50;14.52;;;;;;;;;;5032422;28;20072;-78
2022/03/16 04:32:24;;;;;;;298.73;18.08;;;;;;;;;;5029952;28;20072;-78
2022/03/16 04:34:51;;;;;;;207.52;17.02;;;;;;;;;;5031889;28;20046;-78
2022/03/16 04:37:18;;;;;;;125.60;14.38;;;;;;;;;;5022905;28;20074;-77
2022/03/16 04:39:45;;;;;;;169.52;15.50;;;;;;;;;;5030150;28;20100;-77
2022/03/16 04:42:13;;;;;;;211.52;15.85;;;;;;;;;;5028142;28;20045;-78
2022/03/16 04:44:40;;;;;;;214.35;17.48;;;;;;;;;;5029184;28;20085;-78
2022/03/16 04:47:07;;;;;;;191.13;17.95;;;;;;;;;;5020937;28;20440;-77
2022/03/16 04:49:35;;;;;;;208.27;19.20;;;;;;;;;;5028920;28;20080;-78
2022/03/16 04:52:02;;;;;;;134.45;15.70;;;;;;;;;;5027412;28;20574;-78
2022/03/16 04:54:29;;;;;;;183.75;16.38;;;;;;;;;;5029786;28;20136;-78
2022/03/16 04:56:57;;;;;;;229.60;18.35;;;;;;;;;;5022033;28;20061;-78
2022/03/16 04:59:25;;;;;;;70.22;14.95;;;;;;;;;;5034295;28;20157;-79
2022/03/16 05:01:52;;;;;;;243.70;17.45;;;;;;;;;;5028192;28;20088;-78
2022/03/16 05:04:19;;;;;;;180.82;17.52;;;;;;;;;;5027432;28;20759;-78
2022/03/16 05:06:46;;;;;;;162.93;15.73;;;;;;;;;;5033421;28;20583;-78
2022/03/16 05:09:14;;;;;;;227.88;16.08;;;;;;;;;;5024614;28;20084;-78
2022/03/16 05:11:42;;;;;;;131.43;15.20;;;;;;;;;;5030919;28;20494;-79
2022/03/16 05:14:09;;;;;;;186.77;15.52;;;;;;;;;;5025449;28;20647;-78
2022/03/16 05:16:37;;;;;;;109.68;14.65;;;;;;;;;;5034472;28;20069;-78
2022/03/16 05:19:05;;;;;;;223.73;16.90;;;;;;;;;;5033783;28;20045;-78
2022/03/16 05:21:32;;;;;;;216.60;17.20;;;;;;;;;;5040565;28;20065;-78
2022/03/16 05:23:59;;;;;;;156.48;14.55;;;;;;;;;;5037282;28;20076;-78
2022/03/16 05:26:27;;;;;;;258.50;19.23;;;;;;;;;;5040220;28;20164;-77
2022/03/16 05:28:54;;;;;;;212.35;15.63;;;;;;;;;;5032077;28;20084;-77
2022/03/16 05:31:21;;;;;;;123.63;13.70;;;;;;;;;;5033086;28;20085;-78
2022/03/16 05:33:49;;;;;;;185.25;16.40;;;;;;;;;;5030941;28;20053;-78
2022/03/16 05:36:16;;;;;;;196.65;15.65;;;;;;;;;;5040934;28;20498;-77
2022/03/16 05:38:44;;;;;;;173.15;15.50;;;;;;;;;;5032671;28;20041;-77
2022/03/16 05:41:11;;;;;;;141.70;15.18;;;;;;;;;;5025080;28;20067;-77
2022/03/16 05:43:38;;;;;;;116.93;13.70;;;;;;;;;;5030948;28;20128;-77
2022/03/16 05:46:06;;;;;;;230.38;16.88;;;;;;;;;;5032391;28;20076;-77
2022/03/16 05:48:33;;;;;;;141.48;14.88;;;;;;;;;;5030379;28;20071;-77
2022/03/16 05:51:00;;;;;;;111.15;12.93;;;;;;;;;;5025121;28;20138;-77
2022/03/16 05:53:27;;;;;;;81.25;12.52;;;;;;;;;;5023437;28;20739;-77
2022/03/16 05:55:55;;;;;;;131.10;14.07;;;;;;;;;;5044013;28;20049;-76
2022/03/16 05:58:22;;;;;;;160.57;13.80;;;;;;;;;;5032516;28;20132;-76
2022/03/16 06:00:49;;;;;;;135.70;13.07;;;;;;;;;;5028853;28;20129;-76
2022/03/16 06:03:16;;;;;;;137.45;14.02;;;;;;;;;;5027548;28;20045;-76
2022/03/16 06:05:44;;;;;;;113.72;13.20;;;;;;;;;;5031479;28;20148;-77
2022/03/16 06:08:11;;;;;;;155.30;13.90;;;;;;;;;;5046273;28;20045;-75
2022/03/16 06:10:39;;;;;;;68.47;12.00;;;;;;;;;;5032968;28;20146;-76
2022/03/16 06:13:06;;;;;;;116.85;13.40;;;;;;;;;;5030511;28;20081;-77
2022/03/16 06:15:41;;;;;;;98.80;12.15;;;;;;;;;;5039515;28;20494;-78
2022/03/16 06:18:08;;;;;;;43.72;11.20;;;;;;;;;;5037397;28;20092;-76
2022/03/16 06:20:36;;;;;;;112.65;12.52;;;;;;;;;;5043670;28;20049;-76
2022/03/16 06:23:05;;;;;;;113.47;13.90;;;;;;;;;;5032313;28;20045;-75
2022/03/16 06:25:35;;;;;;;118.88;12.32;;;;;;;;;;5053577;28;20053;-76
2022/03/16 06:28:03;;;;;;;70.63;11.27;;;;;;;;;;5025955;28;20072;-76
2022/03/16 06:30:30;;;;;;;102.80;12.43;;;;;;;;;;5027167;28;20627;-76
2022/03/16 06:32:57;;;;;;;83.03;10.50;;;;;;;;;;5052042;28;20085;-78
2022/03/16 06:35:25;;;;;;;47.70;11.57;;;;;;;;;;5035278;28;20084;-77
2022/03/16 06:37:52;;;;;;;84.50;11.32;;;;;;;;;;5032755;28;20171;-76
2022/03/16 06:40:19;;;;;;;85.82;11.82;;;;;;;;;;5049439;28;20045;-77
2022/03/16 06:42:47;;;;;;;135.13;13.30;;;;;;;;;;5035140;28;20076;-77
2022/03/16 06:45:18;;;;;;;103.82;14.05;;;;;;;;;;5047757;28;20132;-77
2022/03/16 06:47:45;;;;;;;90.05;13.05;;;;;;;;;;5049962;28;20462;-79
2022/03/16 06:50:12;;;;;;;65.45;12.35;;;;;;;;;;5044205;28;20053;-78
2022/03/16 06:52:40;;;;;;;74.68;11.57;;;;;;;;;;5034639;28;20518;-78
2022/03/16 06:55:11;;;;;;;57.50;10.73;;;;;;;;;;5032799;28;20133;-79
2022/03/16 06:57:38;;;;;;;46.58;10.95;;;;;;;;;;5030590;28;20049;-79
2022/03/16 07:00:07;;;;;;;46.28;11.60;;;;;;;;;;5041159;28;20045;-78
2022/03/16 07:02:50;;;;;;;60.88;12.00;;;;;;;;;;5033118;28;20049;-78
2022/03/16 07:05:17;;;;;;;52.72;11.82;;;;;;;;;;5032690;28;20077;-77
2022/03/16 07:07:48;;;;;;;50.55;11.95;;;;;;;;;;5036883;28;20045;-77
2022/03/16 07:10:15;;;;;;;55.58;12.68;;;;;;;;;;5035687;28;20080;-77
2022/03/16 07:12:43;;;;;;;52.15;12.52;;;;;;;;;;5031712;28;20049;-76
2022/03/16 07:15:10;;;;;;;52.58;11.80;;;;;;;;;;5052806;28;20076;-77
2022/03/16 07:17:37;;;;;;;54.33;12.30;;;;;;;;;;5037089;28;20298;-76
2022/03/16 07:20:06;;;;;;;59.40;13.00;;;;;;;;;;5038111;28;20127;-76
2022/03/16 07:22:35;;;;;;;44.65;11.95;;;;;;;;;;5030632;28;20048;-76
2022/03/16 07:25:19;;;;;;;;;;;;;;;;;;5039204;28;20045;-76
2022/03/16 07:27:48;;;;;;;57.95;12.30;;;;;;;;;;5034179;28;19968;-75
2022/03/16 07:30:16;;;;;;;52.63;12.05;;;;;;;;;;5035857;28;20164;-77
2022/03/16 07:32:44;;;;;;;46.13;12.43;;;;;;;;;;5053347;28;20088;-77
2022/03/16 07:35:11;;;;;;;52.72;12.52;;;;;;;;;;5052847;28;20059;-78
2022/03/16 07:37:39;;;;;;;32.53;12.23;;;;;;;;;;5034734;28;20077;-78
2022/03/16 07:40:07;;;;;;;45.88;12.10;;;;;;;;;;5041840;28;20136;-76
2022/03/16 07:42:35;;;;;;;40.85;12.70;;;;;;;;;;5038472;28;20075;-76
2022/03/16 07:45:03;;;;;;;31.77;11.52;;;;;;;;;;5032323;28;20059;-74
2022/03/16 07:47:30;;;;;;;26.98;11.07;;;;;;;;;;5039670;28;20148;-76
2022/03/16 07:50:05;;;;;;;33.25;11.70;;;;;;;;;;5032805;28;20106;-75
2022/03/16 07:52:32;;;;;;;37.90;11.20;;;;;;;;;;5037722;28;20077;-76
2022/03/16 07:55:00;;;;;;;46.13;11.50;;;;;;;;;;5041446;28;20090;-75
2022/03/16 07:57:27;;;;;;;32.45;11.50;;;;;;;;;;5036922;28;20053;-75
2022/03/16 07:59:56;;;;;;;39.83;11.48;;;;;;;;;;5046092;28;20492;-75
2022/03/16 08:02:23;;;;;;;34.67;10.63;;;;;;;;;;5031825;28;20080;-75
2022/03/16 08:04:50;;;;;;;32.75;10.43;;;;;;;;;;5022528;28;20128;-76
2022/03/16 08:07:18;;;;;;;27.58;10.40;;;;;;;;;;5041185;28;21391;-75
2022/03/16 08:09:45;;;;;;;29.42;11.13;;;;;;;;;;5025147;28;20144;-78
2022/03/16 08:12:12;;;;;;;32.78;10.43;;;;;;;;;;5033402;28;20471;-78
2022/03/16 08:14:39;;;;;;;27.08;9.80;;;;;;;;;;5037286;28;20072;-77
2022/03/16 08:17:06;;;;;;;24.83;9.50;;;;;;;;;;5043600;28;20087;-77
2022/03/16 08:19:34;;;;;;;23.52;9.75;;;;;;;;;;5038348;28;20099;-80
2022/03/16 08:22:01;;;;;;;28.52;10.77;;;;;;;;;;5038623;28;20072;-79
2022/03/16 08:24:28;;;;;;;23.48;9.52;;;;;;;;;;5032495;28;20050;-80
2022/03/16 08:27:15;;;;;;;27.75;9.80;;;;;;;;;;5030312;28;20050;-80
2022/03/16 08:29:43;;;;;;;84.35;16.73;;;;;;;;;;5048853;28;20136;-82
2022/03/16 08:32:10;;;;;;;44.47;11.68;;;;;;;;;;5027414;28;20099;-78
2022/03/16 08:34:37;;;;;;;27.27;10.35;;;;;;;;;;5032385;28;20077;-76
2022/03/16 08:37:04;;;;;;;21.88;9.80;;;;;;;;;;5041205;28;20100;-79
2022/03/16 08:39:38;;;;;;;24.95;10.40;;;;;;;;;;5031400;28;20052;-80
2022/03/16 08:42:08;;;;;;;26.42;10.57;;;;;;;;;;5040468;28;20049;-80
2022/03/16 08:44:36;;;;;;;21.25;9.13;;;;;;;;;;5028271;28;20076;-80
2022/03/16 08:47:03;;;;;;;22.98;9.40;;;;;;;;;;5031920;28;20100;-80
2022/03/16 08:49:30;;;;;;;18.38;8.45;;;;;;;;;;5031588;28;20073;-79
2022/03/16 08:51:58;;;;;;;21.98;9.00;;;;;;;;;;5032854;28;20077;-78
2022/03/16 08:54:26;;;;;;;24.05;8.40;;;;;;;;;;5055659;28;20087;-79
2022/03/16 08:56:54;;;;;;;24.27;9.38;;;;;;;;;;5035314;28;20048;-79
2022/03/16 08:59:23;;;;;;;27.48;9.95;;;;;;;;;;5015236;28;20120;-81
2022/03/16 09:01:50;;;;;;;22.15;9.00;;;;;;;;;;5041551;28;20136;-79
2022/03/16 09:04:18;;;;;;;19.75;8.40;;;;;;;;;;5030805;28;20053;-82
2022/03/16 09:06:45;;;;;;;25.15;9.85;;;;;;;;;;5030152;28;20049;-82
2022/03/16 09:09:13;;;;;;;21.40;9.18;;;;;;;;;;5035696;28;20332;-85
2022/03/16 09:11:40;;;;;;;17.95;8.50;;;;;;;;;;5046931;28;20045;-90
2022/03/16 09:14:07;;;;;;;20.65;8.85;;;;;;;;;;5034305;28;20103;-83
2022/03/16 09:16:35;;;;;;;17.00;9.00;;;;;;;;;;5039335;28;20072;-83
2022/03/16 09:19:02;;;;;;;16.70;8.25;;;;;;;;;;5038608;28;20049;-83
2022/03/16 09:21:30;;;;;;;29.30;12.38;;;;;;;;;;5051049;28;20053;-85
2022/03/16 09:23:57;;;;;;;15.63;7.20;;;;;;;;;;5038471;28;20579;-83
2022/03/16 09:26:24;;;;;;;16.15;7.88;;;;;;;;;;5029257;28;20121;-84
2022/03/16 09:28:51;;;;;;;16.17;7.90;;;;;;;;;;5035221;28;20050;-83
2022/03/16 09:31:20;;;;;;;21.35;7.05;;;;;;;;;;5033194;28;20049;-83
2022/03/16 09:33:48;;;;;;;15.75;6.43;;;;;;;;;;5055583;28;20049;-83
2022/03/16 09:36:15;;;;;;;14.88;6.72;;;;;;;;;;5048706;28;20490;-83
2022/03/16 09:38:42;;;;;;;15.43;7.10;;;;;;;;;;5044140;28;20118;-84
2022/03/16 09:41:10;;;;;;;16.70;7.55;;;;;;;;;;5033999;28;20081;-83
2022/03/16 09:43:37;;;;;;;20.88;7.25;;;;;;;;;;5033999;28;20049;-86
2022/03/16 09:46:12;;;;;;;20.88;9.50;;;;;;;;;;5035852;28;20064;-84
2022/03/16 09:48:40;;;;;;;22.20;9.50;;;;;;;;;;5031264;28;20050;-84
2022/03/16 09:51:09;;;;;;;13.38;6.57;;;;;;;;;;5029236;28;20549;-85
2022/03/16 09:53:37;;;;;;;19.00;7.72;;;;;;;;;;5031827;28;20892;-85
2022/03/16 09:56:05;;;;;;;19.65;9.13;;;;;;;;;;5038113;28;20591;-83
2022/03/16 09:58:33;;;;;;;14.80;7.15;;;;;;;;;;5033754;28;20768;-81
2022/03/16 10:01:00;;;;;;;19.98;6.75;;;;;;;;;;5033933;28;20124;-81
2022/03/16 10:03:28;;;;;;;17.73;7.72;;;;;;;;;;5030898;28;20053;-81
2022/03/16 10:05:57;;;;;;;24.63;8.80;;;;;;;;;;5022052;28;20124;-81
2022/03/16 10:08:34;;;;;;;16.05;7.15;;;;;;;;;;5040288;28;20057;-79
2022/03/16 10:13:53;;;;;;;20.17;6.43;;;;;;;;;;5031835;28;20084;-81
2022/03/16 10:16:20;;;;;;;13.85;6.55;;;;;;;;;;5017462;28;20084;-81
2022/03/16 10:18:53;;;;;;;14.70;6.95;;;;;;;;;;5045196;22;20060;-82
2022/03/16 10:21:21;;;;;;;14.43;6.30;;;;;;;;;;5032128;28;20056;-84
2022/03/16 10:23:48;;;;;;;28.88;8.07;;;;;;;;;;5026523;28;20076;-82
2022/03/16 10:26:19;;;;;;;16.20;7.35;;;;;;;;;;5029639;28;20053;-83
2022/03/16 10:28:46;;;;;;;21.65;8.00;;;;;;;;;;5029605;28;20079;-83
2022/03/16 10:31:16;;;;;;;35.88;13.65;;;;;;;;;;5046013;28;20053;-82
2022/03/16 10:33:54;;;;;;;20.88;9.68;;;;;;;;;;5049342;28;20131;-81
2022/03/16 10:36:22;;;;;;;14.13;7.20;;;;;;;;;;5049783;28;20080;-80
2022/03/16 10:39:01;;;;;;;16.30;8.18;;;;;;;;;;5021656;28;20140;-81
2022/03/16 10:47:11;;;;;;;14.57;6.90;;;;;;;;;;5049388;28;20080;-81
2022/03/16 10:49:39;;;;;;;13.77;6.72;;;;;;;;;;5030676;28;20049;-80
2022/03/16 10:52:09;;;;;;;15.43;6.07;;;;;;;;;;5025871;28;20676;-81
2022/03/16 10:54:36;;;;;;;17.25;6.68;;;;;;;;;;5024923;28;20049;-81
2022/03/16 10:57:12;;;;;;;29.73;7.70;;;;;;;;;;5027196;28;22015;-81
2022/03/16 10:59:42;;;;;;;14.27;6.88;;;;;;;;;;5032748;28;20130;-81
2022/03/16 11:02:14;;;;;;;13.65;6.97;;;;;;;;;;5029488;28;20087;-83
2022/03/16 11:04:42;;;;;;;18.63;8.02;;;;;;;;;;5024654;28;20045;-83
2022/03/16 11:07:10;;;;;;;16.25;6.78;;;;;;;;;;5047921;28;20077;-83
2022/03/16 11:09:38;;;;;;;15.27;6.57;;;;;;;;;;5048988;28;20075;-82
2022/03/16 11:15:04;;;;;;;22.55;7.55;;;;;;;;;;5050569;28;20106;-83
2022/03/16 11:17:34;;;;;;;16.98;8.02;;;;;;;;;;5049157;28;20036;-81
2022/03/16 11:20:03;;;;;;;18.02;6.85;;;;;;;;;;5046108;28;20045;-81
2022/03/16 11:22:30;;;;;;;19.00;7.40;;;;;;;;;;5047171;28;20103;-80
2022/03/16 11:25:03;;;;;;;17.23;6.97;;;;;;;;;;5046891;28;20124;-80
2022/03/16 11:27:43;;;;;;;13.38;6.38;;;;;;;;;;5043378;28;20132;-80
2022/03/16 11:30:30;;;;;;;15.55;6.95;;;;;;;;;;5049472;28;20112;-78
2022/03/16 11:33:04;;;;;;;19.98;7.13;;;;;;;;;;5057252;28;20194;-81
2022/03/16 11:35:33;;;;;;;13.80;7.37;;;;;;;;;;5049051;28;20052;-79
2022/03/16 11:38:01;;;;;;;31.90;7.50;;;;;;;;;;5046229;28;20348;-78
2022/03/16 11:40:29;;;;;;;17.17;7.18;;;;;;;;;;5048539;28;20130;-80
2022/03/16 11:43:08;;;;;;;20.70;7.07;;;;;;;;;;5032082;28;20080;-80
2022/03/16 11:45:50;;;;;;;16.00;7.35;;;;;;;;;;5030235;28;20048;-80
2022/03/16 11:48:37;;;;;;;14.82;6.88;;;;;;;;;;5044090;28;20041;-80
2022/03/16 11:51:14;;;;;;;18.80;7.72;;;;;;;;;;5040361;28;20148;-79
2022/03/16 11:56:24;;;;;;;18.58;8.07;;;;;;;;;;5051977;28;20128;-79
2022/03/16 11:58:52;;;;;;;17.30;8.00;;;;;;;;;;5026203;28;20138;-78
2022/03/16 12:01:28;;;;;;;21.17;8.80;;;;;;;;;;5039008;28;20576;-78
2022/03/16 12:04:12;;;;;;;16.38;7.63;;;;;;;;;;5021934;28;20128;-80
2022/03/16 12:06:54;;;;;;;16.38;7.88;;;;;;;;;;5029054;28;20134;-80
2022/03/16 12:09:40;;;;;;;17.38;8.50;;;;;;;;;;5020008;28;20405;-80
2022/03/16 12:14:53;;;;;;;;;;;;;;;;;;5039685;28;20112;-78
2022/03/16 12:17:20;;;;;;;15.02;8.23;;;;;;;;;;5040067;28;19952;-79
2022/03/16 12:20:07;;;;;;;13.57;6.68;;;;;;;;;;5046999;28;20044;-82
2022/03/16 12:22:48;;;;;;;21.92;9.02;;;;;;;;;;5052200;28;20511;-79
2022/03/16 12:25:27;;;;;;;28.48;8.77;;;;;;;;;;5050351;28;20072;-83
2022/03/16 12:30:45;;;;;;;32.97;9.48;;;;;;;;;;5037574;28;20130;-81
2022/03/16 12:33:16;;;;;;;24.73;8.15;;;;;;;;;;5032508;28;20049;-79
2022/03/16 12:35:44;;;;;;;20.38;7.82;;;;;;;;;;5039317;28;20059;-79
2022/03/16 12:38:11;;;;;;;22.08;8.63;;;;;;;;;;5054071;28;20646;-78
2022/03/16 12:43:27;;;;;;;20.00;7.88;;;;;;;;;;5051635;28;20049;-78
2022/03/16 12:45:59;;;;;;;17.40;8.65;;;;;;;;;;5041353;28;20094;-77
2022/03/16 12:48:33;;;;;;;22.55;7.82;;;;;;;;;;5035179;28;20044;-80
2022/03/16 12:51:01;;;;;;;19.65;7.70;;;;;;;;;;5047611;28;20060;-77
2022/03/16 12:53:37;;;;;;;25.13;8.68;;;;;;;;;;5045064;28;20048;-76
2022/03/16 12:56:10;;;;;;;18.33;8.40;;;;;;;;;;5041290;28;20061;-82
2022/03/16 12:58:38;;;;;;;18.73;7.65;;;;;;;;;;5035212;28;20569;-82
2022/03/16 13:01:05;;;;;;;22.77;7.82;;;;;;;;;;5044271;28;20080;-82
2022/03/16 13:03:33;;;;;;;24.02;8.00;;;;;;;;;;5047017;28;20060;-81
2022/03/16 13:06:00;;;;;;;23.88;9.00;;;;;;;;;;5058443;28;20768;-80
2022/03/16 13:08:28;;;;;;;22.90;8.98;;;;;;;;;;5052320;28;20074;-80
2022/03/16 13:11:17;;;;;;;23.70;9.07;;;;;;;;;;5025493;28;20099;-81
2022/03/16 13:13:48;;;;;;;17.90;8.73;;;;;;;;;;5048855;28;20110;-81
2022/03/16 13:16:34;;;;;;;21.67;8.60;;;;;;;;;;5042814;28;20049;-81
2022/03/16 13:22:17;;;;;;;22.25;8.50;;;;;;;;;;5055904;28;20040;-77
2022/03/16 13:24:54;;;;;;;21.35;9.10;;;;;;;;;;5041164;28;20512;-77
2022/03/16 13:27:26;;;;;;;21.58;8.23;;;;;;;;;;5040807;28;20045;-77
2022/03/16 13:29:55;;;;;;;23.45;9.35;;;;;;;;;;5059702;28;20731;-76
2022/03/16 13:32:32;;;;;;;21.10;9.70;;;;;;;;;;5057526;28;20051;-76
2022/03/16 13:35:14;;;;;;;24.00;9.88;;;;;;;;;;5066514;28;20126;-75
2022/03/16 13:38:03;;;;;;;18.02;8.98;;;;;;;;;;5058971;28;21521;-76
2022/03/16 13:40:37;;;;;;;20.15;8.93;;;;;;;;;;5065129;28;20073;-76
2022/03/16 13:43:08;;;;;;;21.35;9.52;;;;;;;;;;5043962;28;20050;-77
2022/03/16 13:45:42;;;;;;;23.30;9.38;;;;;;;;;;5063114;28;20127;-78
2022/03/16 13:48:13;;;;;;;22.58;8.93;;;;;;;;;;5041616;28;20396;-83
2022/03/16 13:50:49;;;;;;;21.00;9.57;;;;;;;;;;5075230;28;20095;-81
2022/03/16 13:53:21;;;;;;;25.20;9.20;;;;;;;;;;5061157;28;20766;-81
2022/03/16 13:55:53;;;;;;;25.95;9.68;;;;;;;;;;5048844;28;20083;-81
2022/03/16 13:58:25;;;;;;;21.27;10.73;;;;;;;;;;5040489;28;20076;-81
2022/03/16 14:00:53;;;;;;;19.58;9.18;;;;;;;;;;5065595;28;20040;-80
2022/03/16 14:03:22;;;;;;;20.13;9.60;;;;;;;;;;5068558;28;20080;-81
2022/03/16 14:05:50;;;;;;;19.75;9.95;;;;;;;;;;5059089;28;20045;-81
2022/03/16 14:08:17;;;;;;;34.60;9.82;;;;;;;;;;5061860;28;20630;-81
2022/03/16 14:10:47;;;;;;;20.70;9.32;;;;;;;;;;5047544;28;20100;-81
2022/03/16 14:13:15;;;;;;;22.52;8.75;;;;;;;;;;5046401;28;20106;-81
2022/03/16 14:15:44;;;;;;;24.73;9.50;;;;;;;;;;5049752;28;20520;-79
2022/03/16 14:18:13;;;;;;;20.67;8.82;;;;;;;;;;5070332;28;20053;-80
2022/03/16 14:20:41;;;;;;;21.05;10.13;;;;;;;;;;5078949;28;20099;-81
2022/03/16 14:23:10;;;;;;;33.15;8.68;;;;;;;;;;5050576;28;20044;-81
2022/03/16 14:25:41;;;;;;;24.13;9.02;;;;;;;;;;5054413;28;20102;-82
2022/03/16 14:28:09;;;;;;;24.50;9.88;;;;;;;;;;5054724;28;20072;-81
2022/03/16 14:30:38;;;;;;;23.63;9.60;;;;;;;;;;5071696;28;20918;-81
2022/03/16 14:33:06;;;;;;;26.17;10.30;;;;;;;;;;5072443;28;20048;-80
2022/03/16 14:35:35;;;;;;;21.90;9.15;;;;;;;;;;5069975;28;20052;-77
2022/03/16 14:38:05;;;;;;;21.40;9.48;;;;;;;;;;5079687;28;20527;-78
2022/03/16 14:40:34;;;;;;;21.50;9.02;;;;;;;;;;5068974;28;20125;-77
2022/03/16 14:43:01;;;;;;;23.98;10.02;;;;;;;;;;5085547;28;20109;-77
2022/03/16 14:45:29;;;;;;;24.40;10.95;;;;;;;;;;5067352;28;20473;-78
2022/03/16 14:47:57;;;;;;;20.95;9.60;;;;;;;;;;5070051;28;20477;-78
2022/03/16 14:50:29;;;;;;;26.35;9.68;;;;;;;;;;5075387;28;20048;-76
2022/03/16 14:53:00;;;;;;;23.88;10.10;;;;;;;;;;5067552;28;20087;-76